AUA353F LOWW-LFLL
Flight info
| Callsign | AUA353F |
|---|---|
| Flight time | 1h 25m |
| Altitude | 34000 |
| Route | SOVIL DCT SITNI DCT BAGSI DCT MATIG DCT TRAUN/N0440F360 L856 AKABI/N0442F370 L856 TRA DCT LUTIX DCT BENOT N869 MILPA |
| Aircraft | A320/M-SDE3FGHIRWY/LB1 |
Departure
| Time | 2026-05-05 19:43 |
|---|---|
| Airport | Vienna International Airport (LOWW) |
Arrival
| Time | 2026-05-05 21:08 |
|---|---|
| Airport | Lyon Saint-Exupéry Airport (LFLL) |
| Time | Latitude | Longitude | Altitude | Speed | Heading |
|---|---|---|---|---|---|
| 2026-05-05 19:32 | 48.11388 | 16.57250 | 615 ft | 0 kts | 205° |
| 2026-05-05 19:37 | 48.11386 | 16.57248 | 612 ft | 1 kts | 205° |
| 2026-05-05 19:37 | 48.11379 | 16.57243 | 610 ft | 2 kts | 205° |
| 2026-05-05 19:37 | 48.11366 | 16.57234 | 619 ft | 2 kts | 205° |
| 2026-05-05 19:38 | 48.11358 | 16.57228 | 623 ft | 0 kts | 205° |
| 2026-05-05 19:38 | 48.11353 | 16.57223 | 620 ft | 4 kts | 214° |
| 2026-05-05 19:39 | 48.11346 | 16.57129 | 618 ft | 10 kts | 278° |
| 2026-05-05 19:39 | 48.11310 | 16.57005 | 612 ft | 22 kts | 265° |
| 2026-05-05 19:39 | 48.11390 | 16.56716 | 622 ft | 32 kts | 296° |
| 2026-05-05 19:39 | 48.11490 | 16.56409 | 617 ft | 33 kts | 297° |
| 2026-05-05 19:40 | 48.11594 | 16.56095 | 616 ft | 34 kts | 295° |
| 2026-05-05 19:40 | 48.11699 | 16.55772 | 615 ft | 35 kts | 298° |
| 2026-05-05 19:40 | 48.11810 | 16.55441 | 618 ft | 36 kts | 295° |
| 2026-05-05 19:40 | 48.11918 | 16.55099 | 617 ft | 37 kts | 295° |
| 2026-05-05 19:41 | 48.12029 | 16.54750 | 614 ft | 38 kts | 297° |
| 2026-05-05 19:41 | 48.12085 | 16.54549 | 610 ft | 2 kts | 220° |
| 2026-05-05 19:41 | 48.12025 | 16.54543 | 622 ft | 16 kts | 168° |
| 2026-05-05 19:41 | 48.11925 | 16.54627 | 610 ft | 17 kts | 148° |
| 2026-05-05 19:42 | 48.11835 | 16.54708 | 616 ft | 17 kts | 117° |
| 2026-05-05 19:42 | 48.11711 | 16.55086 | 620 ft | 74 kts | 116° |
| 2026-05-05 19:42 | 48.11397 | 16.56055 | 620 ft | 131 kts | 116° |
| 2026-05-05 19:42 | 48.10948 | 16.57456 | 815 ft | 156 kts | 120° |
| 2026-05-05 19:43 | 48.10484 | 16.58907 | 1463 ft | 154 kts | 123° |
| 2026-05-05 19:43 | 48.10013 | 16.60346 | 2120 ft | 154 kts | 125° |
| 2026-05-05 19:43 | 48.09529 | 16.61789 | 2715 ft | 156 kts | 126° |
| 2026-05-05 19:43 | 48.09017 | 16.63303 | 3080 ft | 173 kts | 124° |
| 2026-05-05 19:44 | 48.08438 | 16.65011 | 3313 ft | 196 kts | 124° |
| 2026-05-05 19:44 | 48.07789 | 16.66930 | 3590 ft | 216 kts | 124° |
| 2026-05-05 19:44 | 48.06796 | 16.68687 | 3915 ft | 229 kts | 152° |
| 2026-05-05 19:44 | 48.05257 | 16.69428 | 4297 ft | 243 kts | 183° |
| 2026-05-05 19:45 | 48.03642 | 16.68694 | 4941 ft | 250 kts | 216° |
| 2026-05-05 19:45 | 48.02565 | 16.66648 | 5700 ft | 259 kts | 249° |
| 2026-05-05 19:45 | 48.02368 | 16.63933 | 6509 ft | 268 kts | 267° |
| 2026-05-05 19:45 | 48.02431 | 16.61125 | 7322 ft | 272 kts | 269° |
| 2026-05-05 19:46 | 48.02536 | 16.58276 | 8135 ft | 276 kts | 271° |
| 2026-05-05 19:46 | 48.02647 | 16.55406 | 8954 ft | 279 kts | 270° |
| 2026-05-05 19:46 | 48.02751 | 16.52490 | 9768 ft | 283 kts | 270° |
| 2026-05-05 19:46 | 48.02851 | 16.49540 | 10493 ft | 286 kts | 270° |
| 2026-05-05 19:47 | 48.02946 | 16.46557 | 11233 ft | 289 kts | 270° |
| 2026-05-05 19:47 | 48.03022 | 16.43541 | 11988 ft | 291 kts | 269° |
| 2026-05-05 19:47 | 48.03064 | 16.40537 | 12702 ft | 295 kts | 268° |
| 2026-05-05 19:47 | 48.03087 | 16.37461 | 13434 ft | 298 kts | 268° |
| 2026-05-05 19:48 | 48.03102 | 16.34350 | 14081 ft | 301 kts | 268° |
| 2026-05-05 19:48 | 48.03117 | 16.31207 | 14720 ft | 304 kts | 268° |
| 2026-05-05 19:48 | 48.03135 | 16.28037 | 15374 ft | 306 kts | 268° |
| 2026-05-05 19:48 | 48.03156 | 16.24843 | 16007 ft | 309 kts | 268° |
| 2026-05-05 19:49 | 48.03181 | 16.21613 | 16642 ft | 312 kts | 268° |
| 2026-05-05 19:49 | 48.03197 | 16.19408 | 17071 ft | 314 kts | 268° |
| 2026-05-05 19:49 | 48.03232 | 16.15054 | 17900 ft | 318 kts | 268° |
| 2026-05-05 19:49 | 48.03258 | 16.11731 | 18476 ft | 321 kts | 268° |
| 2026-05-05 19:50 | 48.03281 | 16.08385 | 19025 ft | 323 kts | 268° |
| 2026-05-05 19:50 | 48.03302 | 16.05015 | 19563 ft | 326 kts | 268° |
| 2026-05-05 19:50 | 48.03323 | 16.01610 | 20109 ft | 329 kts | 268° |
| 2026-05-05 19:50 | 48.03344 | 15.98174 | 20653 ft | 332 kts | 268° |
| 2026-05-05 19:51 | 48.03366 | 15.94715 | 21191 ft | 334 kts | 268° |
| 2026-05-05 19:51 | 48.03389 | 15.91228 | 21730 ft | 337 kts | 268° |
| 2026-05-05 19:51 | 48.03409 | 15.87709 | 22259 ft | 340 kts | 268° |
| 2026-05-05 19:51 | 48.03426 | 15.84163 | 22800 ft | 343 kts | 268° |
| 2026-05-05 19:52 | 48.03441 | 15.80585 | 23319 ft | 345 kts | 268° |
| 2026-05-05 19:52 | 48.03452 | 15.76983 | 23771 ft | 348 kts | 268° |
| 2026-05-05 19:52 | 48.03462 | 15.73351 | 24206 ft | 350 kts | 268° |
| 2026-05-05 19:52 | 48.03474 | 15.69705 | 24641 ft | 352 kts | 268° |
| 2026-05-05 19:53 | 48.03487 | 15.66033 | 25083 ft | 355 kts | 268° |
| 2026-05-05 19:53 | 48.03498 | 15.62379 | 25518 ft | 357 kts | 268° |
| 2026-05-05 19:53 | 48.03506 | 15.58666 | 25961 ft | 359 kts | 268° |
| 2026-05-05 19:53 | 48.03514 | 15.54918 | 26398 ft | 361 kts | 268° |
| 2026-05-05 19:54 | 48.03526 | 15.51152 | 26847 ft | 363 kts | 268° |
| 2026-05-05 19:54 | 48.03744 | 15.47365 | 27141 ft | 372 kts | 275° |
| 2026-05-05 19:54 | 48.04087 | 15.43478 | 27280 ft | 383 kts | 275° |
| 2026-05-05 19:54 | 48.04447 | 15.39484 | 27416 ft | 393 kts | 275° |
| 2026-05-05 19:55 | 48.04671 | 15.35380 | 27560 ft | 400 kts | 269° |
| 2026-05-05 19:55 | 48.04748 | 15.31185 | 27685 ft | 408 kts | 269° |
| 2026-05-05 19:55 | 48.04821 | 15.26901 | 27843 ft | 416 kts | 269° |
| 2026-05-05 19:55 | 48.04890 | 15.22540 | 27959 ft | 422 kts | 269° |
| 2026-05-05 19:56 | 48.04955 | 15.18119 | 28098 ft | 429 kts | 269° |
| 2026-05-05 19:56 | 48.05019 | 15.13644 | 28299 ft | 433 kts | 269° |
| 2026-05-05 19:56 | 48.05083 | 15.09186 | 28564 ft | 435 kts | 269° |
| 2026-05-05 19:56 | 48.05145 | 15.04653 | 28849 ft | 437 kts | 269° |
| 2026-05-05 19:57 | 48.05208 | 15.00111 | 29127 ft | 438 kts | 269° |
| 2026-05-05 19:57 | 48.05249 | 14.97087 | 29312 ft | 439 kts | 269° |
| 2026-05-05 19:57 | 48.05329 | 14.90978 | 29677 ft | 440 kts | 269° |
| 2026-05-05 19:57 | 48.05388 | 14.86393 | 29921 ft | 442 kts | 269° |
| 2026-05-05 19:58 | 48.05444 | 14.81816 | 30214 ft | 440 kts | 269° |
| 2026-05-05 19:58 | 48.05492 | 14.77241 | 30527 ft | 439 kts | 269° |
| 2026-05-05 19:58 | 48.05532 | 14.72687 | 30825 ft | 438 kts | 268° |
| 2026-05-05 19:58 | 48.05564 | 14.68143 | 31115 ft | 437 kts | 268° |
| 2026-05-05 19:59 | 48.05593 | 14.63601 | 31407 ft | 436 kts | 269° |
| 2026-05-05 19:59 | 48.05623 | 14.59073 | 31704 ft | 436 kts | 269° |
| 2026-05-05 19:59 | 48.05653 | 14.54540 | 31996 ft | 435 kts | 269° |
| 2026-05-05 19:59 | 48.05683 | 14.50025 | 32302 ft | 434 kts | 269° |
| 2026-05-05 20:00 | 48.05709 | 14.45528 | 32594 ft | 433 kts | 268° |
| 2026-05-05 20:00 | 48.05731 | 14.41023 | 32888 ft | 433 kts | 268° |
| 2026-05-05 20:00 | 48.05752 | 14.36530 | 33172 ft | 432 kts | 268° |
| 2026-05-05 20:00 | 48.05769 | 14.32044 | 33465 ft | 432 kts | 268° |
| 2026-05-05 20:01 | 48.05785 | 14.27562 | 33731 ft | 431 kts | 268° |
| 2026-05-05 20:01 | 48.05821 | 14.18666 | 33809 ft | 429 kts | 268° |
| 2026-05-05 20:02 | 48.05853 | 14.09661 | 33810 ft | 438 kts | 268° |
| 2026-05-05 20:02 | 48.05870 | 14.00490 | 33813 ft | 443 kts | 268° |
| 2026-05-05 20:03 | 48.05883 | 13.91269 | 33813 ft | 443 kts | 268° |
| 2026-05-05 20:03 | 48.05896 | 13.82040 | 33813 ft | 443 kts | 268° |
| 2026-05-05 20:04 | 48.05893 | 13.72835 | 33820 ft | 442 kts | 267° |
| 2026-05-05 20:04 | 48.05880 | 13.63701 | 33827 ft | 441 kts | 267° |
| 2026-05-05 20:05 | 48.05844 | 13.54529 | 33830 ft | 440 kts | 264° |
| 2026-05-05 20:05 | 48.05139 | 13.45470 | 33837 ft | 438 kts | 260° |
| 2026-05-05 20:06 | 48.04496 | 13.37973 | 33844 ft | 437 kts | 260° |
| 2026-05-05 20:06 | 48.03724 | 13.28958 | 33852 ft | 437 kts | 259° |
| 2026-05-05 20:07 | 48.02949 | 13.19950 | 33852 ft | 436 kts | 259° |
| 2026-05-05 20:07 | 48.02173 | 13.10975 | 33854 ft | 436 kts | 259° |
| 2026-05-05 20:08 | 48.01380 | 13.02007 | 33853 ft | 435 kts | 259° |
| 2026-05-05 20:08 | 48.00590 | 12.93102 | 33850 ft | 435 kts | 259° |
| 2026-05-05 20:09 | 47.99790 | 12.84158 | 33851 ft | 434 kts | 259° |
| 2026-05-05 20:09 | 47.98989 | 12.75237 | 33850 ft | 434 kts | 258° |
| 2026-05-05 20:10 | 47.98170 | 12.66299 | 33849 ft | 434 kts | 258° |
| 2026-05-05 20:10 | 47.97345 | 12.57382 | 33851 ft | 434 kts | 258° |
| 2026-05-05 20:11 | 47.96525 | 12.48461 | 33848 ft | 433 kts | 258° |
| 2026-05-05 20:11 | 47.95700 | 12.39558 | 33849 ft | 433 kts | 258° |
| 2026-05-05 20:12 | 47.94868 | 12.30656 | 33848 ft | 433 kts | 258° |
| 2026-05-05 20:12 | 47.94024 | 12.21757 | 33852 ft | 433 kts | 258° |
| 2026-05-05 20:13 | 47.93176 | 12.12882 | 33852 ft | 432 kts | 258° |
| 2026-05-05 20:13 | 47.92318 | 12.04071 | 33856 ft | 432 kts | 257° |
| 2026-05-05 20:14 | 47.91446 | 11.95223 | 33856 ft | 431 kts | 257° |
| 2026-05-05 20:14 | 47.90568 | 11.86375 | 33852 ft | 431 kts | 257° |
| 2026-05-05 20:15 | 47.89690 | 11.77542 | 33858 ft | 430 kts | 257° |
| 2026-05-05 20:15 | 47.88819 | 11.68740 | 33877 ft | 429 kts | 257° |
| 2026-05-05 20:16 | 47.87943 | 11.59944 | 33877 ft | 429 kts | 257° |
| 2026-05-05 20:16 | 47.87054 | 11.51169 | 33897 ft | 428 kts | 257° |
| 2026-05-05 20:17 | 47.86161 | 11.42422 | 33895 ft | 427 kts | 257° |
| 2026-05-05 20:17 | 47.85261 | 11.33701 | 33904 ft | 426 kts | 257° |
| 2026-05-05 20:18 | 47.84365 | 11.24993 | 33903 ft | 425 kts | 257° |
| 2026-05-05 20:18 | 47.83469 | 11.16348 | 33911 ft | 425 kts | 257° |
| 2026-05-05 20:19 | 47.82556 | 11.07673 | 33909 ft | 424 kts | 257° |
| 2026-05-05 20:19 | 47.81693 | 10.99555 | 33906 ft | 424 kts | 257° |
| 2026-05-05 20:20 | 47.80755 | 10.90881 | 33901 ft | 424 kts | 257° |
| 2026-05-05 20:20 | 47.79815 | 10.82213 | 33902 ft | 424 kts | 257° |
| 2026-05-05 20:21 | 47.78875 | 10.73539 | 33896 ft | 424 kts | 257° |
| 2026-05-05 20:21 | 47.77915 | 10.64875 | 33894 ft | 425 kts | 257° |
| 2026-05-05 20:22 | 47.76951 | 10.56206 | 33893 ft | 425 kts | 257° |
| 2026-05-05 20:22 | 47.76019 | 10.47796 | 33894 ft | 425 kts | 257° |
| 2026-05-05 20:23 | 47.75048 | 10.39117 | 33904 ft | 426 kts | 257° |
| 2026-05-05 20:23 | 47.74472 | 10.30328 | 33905 ft | 430 kts | 264° |
| 2026-05-05 20:24 | 47.74282 | 10.21442 | 33902 ft | 431 kts | 264° |
| 2026-05-05 20:24 | 47.74079 | 10.12544 | 33906 ft | 431 kts | 264° |
| 2026-05-05 20:25 | 47.73860 | 10.03623 | 33900 ft | 432 kts | 264° |
| 2026-05-05 20:25 | 47.73635 | 9.94698 | 33900 ft | 432 kts | 264° |
| 2026-05-05 20:26 | 47.73418 | 9.85774 | 33907 ft | 433 kts | 264° |
| 2026-05-05 20:26 | 47.73189 | 9.76896 | 33915 ft | 433 kts | 264° |
| 2026-05-05 20:27 | 47.72947 | 9.67938 | 33920 ft | 434 kts | 264° |
| 2026-05-05 20:27 | 47.72698 | 9.58960 | 33927 ft | 435 kts | 264° |
| 2026-05-05 20:28 | 47.72433 | 9.49968 | 33924 ft | 435 kts | 264° |
| 2026-05-05 20:28 | 47.72166 | 9.40982 | 33916 ft | 436 kts | 264° |
| 2026-05-05 20:29 | 47.71918 | 9.31987 | 33913 ft | 436 kts | 264° |
| 2026-05-05 20:29 | 47.71681 | 9.23035 | 33905 ft | 437 kts | 264° |
| 2026-05-05 20:30 | 47.71416 | 9.14016 | 33894 ft | 438 kts | 264° |
| 2026-05-05 20:30 | 47.71140 | 9.05507 | 33885 ft | 438 kts | 264° |
| 2026-05-05 20:31 | 47.70832 | 8.96445 | 33876 ft | 439 kts | 264° |
| 2026-05-05 20:31 | 47.70526 | 8.87371 | 33882 ft | 440 kts | 264° |
| 2026-05-05 20:32 | 47.70215 | 8.78291 | 33891 ft | 441 kts | 264° |
| 2026-05-05 20:32 | 47.69895 | 8.69185 | 33902 ft | 442 kts | 264° |
| 2026-05-05 20:33 | 47.69569 | 8.60075 | 33908 ft | 442 kts | 264° |
| 2026-05-05 20:33 | 47.69235 | 8.50976 | 33911 ft | 442 kts | 262° |
| 2026-05-05 20:34 | 47.67792 | 8.42241 | 33912 ft | 434 kts | 243° |
| 2026-05-05 20:34 | 47.64593 | 8.34725 | 33909 ft | 431 kts | 233° |
| 2026-05-05 20:35 | 47.61113 | 8.27536 | 33911 ft | 432 kts | 233° |
| 2026-05-05 20:35 | 47.57610 | 8.20289 | 33919 ft | 432 kts | 233° |
| 2026-05-05 20:36 | 47.54093 | 8.13066 | 33926 ft | 432 kts | 233° |
| 2026-05-05 20:36 | 47.50696 | 8.06128 | 33921 ft | 432 kts | 233° |
| 2026-05-05 20:37 | 47.47177 | 7.98938 | 33927 ft | 431 kts | 233° |
| 2026-05-05 20:37 | 47.43723 | 7.91885 | 33919 ft | 431 kts | 233° |
| 2026-05-05 20:38 | 47.40205 | 7.84729 | 33917 ft | 431 kts | 233° |
| 2026-05-05 20:38 | 47.36672 | 7.77579 | 33904 ft | 430 kts | 233° |
| 2026-05-05 20:39 | 47.33144 | 7.70444 | 33906 ft | 430 kts | 233° |
| 2026-05-05 20:39 | 47.29635 | 7.63360 | 33917 ft | 430 kts | 233° |
| 2026-05-05 20:40 | 47.26102 | 7.56247 | 33923 ft | 431 kts | 233° |
| 2026-05-05 20:40 | 47.22551 | 7.49140 | 33924 ft | 431 kts | 233° |
| 2026-05-05 20:41 | 47.18994 | 7.42045 | 33924 ft | 431 kts | 232° |
| 2026-05-05 20:41 | 47.15429 | 7.34972 | 33942 ft | 430 kts | 232° |
| 2026-05-05 20:42 | 47.11726 | 7.28071 | 33942 ft | 430 kts | 230° |
| 2026-05-05 20:42 | 47.07954 | 7.21270 | 33929 ft | 430 kts | 230° |
| 2026-05-05 20:43 | 47.04195 | 7.14438 | 33919 ft | 430 kts | 231° |
| 2026-05-05 20:43 | 47.00466 | 7.07589 | 33918 ft | 430 kts | 231° |
| 2026-05-05 20:44 | 46.96734 | 7.00744 | 33926 ft | 430 kts | 230° |
| 2026-05-05 20:44 | 46.92986 | 6.93917 | 33931 ft | 430 kts | 230° |
| 2026-05-05 20:45 | 46.87379 | 6.83744 | 33933 ft | 430 kts | 230° |
| 2026-05-05 20:45 | 46.83617 | 6.76930 | 33935 ft | 430 kts | 230° |
| 2026-05-05 20:46 | 46.79854 | 6.70128 | 33848 ft | 431 kts | 230° |
| 2026-05-05 20:46 | 46.77982 | 6.66747 | 33102 ft | 422 kts | 230° |
| 2026-05-05 20:46 | 46.76161 | 6.63464 | 32737 ft | 414 kts | 230° |
| 2026-05-05 20:47 | 46.74351 | 6.60206 | 32434 ft | 412 kts | 230° |
| 2026-05-05 20:47 | 46.72551 | 6.56977 | 31443 ft | 408 kts | 229° |
| 2026-05-05 20:47 | 46.70740 | 6.53848 | 30504 ft | 399 kts | 227° |
| 2026-05-05 20:47 | 46.68953 | 6.50885 | 29972 ft | 382 kts | 226° |
| 2026-05-05 20:48 | 46.67202 | 6.48043 | 29314 ft | 373 kts | 226° |
| 2026-05-05 20:48 | 46.65466 | 6.45244 | 28731 ft | 371 kts | 226° |
| 2026-05-05 20:48 | 46.63764 | 6.42493 | 28168 ft | 369 kts | 226° |
| 2026-05-05 20:48 | 46.62023 | 6.39667 | 27593 ft | 370 kts | 226° |
| 2026-05-05 20:49 | 46.60342 | 6.36923 | 27035 ft | 367 kts | 226° |
| 2026-05-05 20:49 | 46.58656 | 6.34158 | 26477 ft | 364 kts | 226° |
| 2026-05-05 20:49 | 46.56979 | 6.31406 | 25925 ft | 363 kts | 226° |
| 2026-05-05 20:49 | 46.55309 | 6.28669 | 25369 ft | 361 kts | 226° |
| 2026-05-05 20:50 | 46.53641 | 6.25942 | 24820 ft | 361 kts | 226° |
| 2026-05-05 20:50 | 46.52517 | 6.24104 | 24458 ft | 360 kts | 226° |
| 2026-05-05 20:50 | 46.50314 | 6.20501 | 23752 ft | 359 kts | 226° |
| 2026-05-05 20:50 | 46.48656 | 6.17798 | 23195 ft | 358 kts | 226° |
| 2026-05-05 20:51 | 46.47005 | 6.15111 | 22682 ft | 355 kts | 226° |
| 2026-05-05 20:51 | 46.45369 | 6.12454 | 22231 ft | 351 kts | 226° |
| 2026-05-05 20:51 | 46.43748 | 6.09824 | 21768 ft | 347 kts | 226° |
| 2026-05-05 20:51 | 46.42690 | 6.08105 | 21490 ft | 344 kts | 226° |
| 2026-05-05 20:52 | 46.41100 | 6.05520 | 21058 ft | 341 kts | 226° |
| 2026-05-05 20:52 | 46.39525 | 6.02962 | 20628 ft | 339 kts | 227° |
| 2026-05-05 20:52 | 46.37939 | 6.00395 | 20189 ft | 348 kts | 227° |
| 2026-05-05 20:52 | 46.36310 | 5.97763 | 19731 ft | 352 kts | 227° |
| 2026-05-05 20:53 | 46.34675 | 5.95123 | 19247 ft | 352 kts | 227° |
| 2026-05-05 20:53 | 46.33038 | 5.92479 | 18781 ft | 351 kts | 227° |
| 2026-05-05 20:53 | 46.31430 | 5.89837 | 18291 ft | 350 kts | 231° |
| 2026-05-05 20:53 | 46.30115 | 5.86878 | 17749 ft | 350 kts | 242° |
| 2026-05-05 20:54 | 46.29212 | 5.83600 | 17187 ft | 350 kts | 249° |
| 2026-05-05 20:54 | 46.28441 | 5.80304 | 16656 ft | 349 kts | 249° |
| 2026-05-05 20:54 | 46.27657 | 5.76992 | 16106 ft | 348 kts | 249° |
| 2026-05-05 20:54 | 46.26866 | 5.73681 | 15576 ft | 348 kts | 249° |
| 2026-05-05 20:55 | 46.26073 | 5.70382 | 15100 ft | 346 kts | 249° |
| 2026-05-05 20:55 | 46.25289 | 5.67122 | 14598 ft | 344 kts | 249° |
| 2026-05-05 20:55 | 46.24503 | 5.63853 | 14216 ft | 340 kts | 249° |
| 2026-05-05 20:55 | 46.23731 | 5.60635 | 13740 ft | 338 kts | 249° |
| 2026-05-05 20:56 | 46.22832 | 5.57522 | 13241 ft | 334 kts | 238° |
| 2026-05-05 20:56 | 46.21427 | 5.54870 | 12746 ft | 331 kts | 229° |
| 2026-05-05 20:56 | 46.19947 | 5.52351 | 12418 ft | 322 kts | 229° |
| 2026-05-05 20:56 | 46.18576 | 5.50039 | 12232 ft | 291 kts | 229° |
| 2026-05-05 20:57 | 46.17296 | 5.47910 | 11483 ft | 278 kts | 228° |
| 2026-05-05 20:57 | 46.16024 | 5.45805 | 10538 ft | 277 kts | 229° |
| 2026-05-05 20:57 | 46.14806 | 5.43700 | 9817 ft | 269 kts | 231° |
| 2026-05-05 20:57 | 46.13920 | 5.41337 | 9084 ft | 270 kts | 250° |
| 2026-05-05 20:58 | 46.13381 | 5.38745 | 8391 ft | 269 kts | 252° |
| 2026-05-05 20:58 | 46.12886 | 5.36156 | 7729 ft | 267 kts | 253° |
| 2026-05-05 20:58 | 46.12392 | 5.33582 | 7112 ft | 264 kts | 253° |
| 2026-05-05 20:58 | 46.11988 | 5.31470 | 6965 ft | 264 kts | 253° |
| 2026-05-05 20:59 | 46.11495 | 5.28902 | 6921 ft | 266 kts | 253° |
| 2026-05-05 20:59 | 46.10997 | 5.26327 | 6923 ft | 267 kts | 253° |
| 2026-05-05 20:59 | 46.10499 | 5.23751 | 6839 ft | 265 kts | 253° |
| 2026-05-05 20:59 | 46.10003 | 5.21205 | 6429 ft | 261 kts | 253° |
| 2026-05-05 21:00 | 46.09538 | 5.18810 | 6202 ft | 242 kts | 253° |
| 2026-05-05 21:00 | 46.09094 | 5.16538 | 5834 ft | 231 kts | 253° |
| 2026-05-05 21:00 | 46.08667 | 5.14348 | 5404 ft | 224 kts | 253° |
| 2026-05-05 21:00 | 46.08130 | 5.12256 | 4882 ft | 220 kts | 234° |
| 2026-05-05 21:01 | 46.07034 | 5.10753 | 4367 ft | 218 kts | 216° |
| 2026-05-05 21:01 | 46.05776 | 5.09535 | 3874 ft | 218 kts | 213° |
| 2026-05-05 21:01 | 46.04506 | 5.08354 | 3416 ft | 216 kts | 213° |
| 2026-05-05 21:01 | 46.03247 | 5.07187 | 3020 ft | 214 kts | 213° |
| 2026-05-05 21:02 | 46.01949 | 5.06142 | 2990 ft | 215 kts | 199° |
| 2026-05-05 21:02 | 46.00468 | 5.05877 | 2984 ft | 215 kts | 177° |
| 2026-05-05 21:02 | 45.98998 | 5.06059 | 2991 ft | 214 kts | 176° |
| 2026-05-05 21:02 | 45.97515 | 5.06249 | 2993 ft | 214 kts | 176° |
| 2026-05-05 21:03 | 45.96032 | 5.06432 | 2993 ft | 214 kts | 176° |
| 2026-05-05 21:03 | 45.94550 | 5.06614 | 3006 ft | 214 kts | 176° |
| 2026-05-05 21:03 | 45.93067 | 5.06796 | 3000 ft | 214 kts | 176° |
| 2026-05-05 21:03 | 45.91585 | 5.06978 | 2998 ft | 214 kts | 176° |
| 2026-05-05 21:04 | 45.90100 | 5.07160 | 3000 ft | 214 kts | 176° |
| 2026-05-05 21:04 | 45.88632 | 5.07340 | 2993 ft | 205 kts | 176° |
| 2026-05-05 21:04 | 45.87263 | 5.07508 | 2993 ft | 191 kts | 176° |
| 2026-05-05 21:04 | 45.85959 | 5.07667 | 3001 ft | 186 kts | 176° |
| 2026-05-05 21:05 | 45.84685 | 5.07822 | 3035 ft | 183 kts | 176° |
| 2026-05-05 21:05 | 45.83416 | 5.07977 | 2829 ft | 182 kts | 176° |
| 2026-05-05 21:05 | 45.82171 | 5.08129 | 2584 ft | 177 kts | 176° |
| 2026-05-05 21:05 | 45.80976 | 5.08275 | 2341 ft | 165 kts | 176° |
| 2026-05-05 21:06 | 45.79888 | 5.08408 | 2127 ft | 152 kts | 176° |
| 2026-05-05 21:06 | 45.78883 | 5.08531 | 1945 ft | 140 kts | 175° |
| 2026-05-05 21:06 | 45.77928 | 5.08647 | 1743 ft | 137 kts | 175° |
| 2026-05-05 21:06 | 45.76980 | 5.08762 | 1546 ft | 137 kts | 175° |
| 2026-05-05 21:07 | 45.76034 | 5.08877 | 1352 ft | 136 kts | 175° |
| 2026-05-05 21:07 | 45.75089 | 5.08992 | 1157 ft | 136 kts | 175° |
| 2026-05-05 21:07 | 45.74144 | 5.09114 | 919 ft | 136 kts | 174° |
| 2026-05-05 21:07 | 45.73213 | 5.09226 | 804 ft | 130 kts | 175° |
| 2026-05-05 21:08 | 45.72432 | 5.09319 | 812 ft | 92 kts | 175° |
| 2026-05-05 21:08 | 45.71995 | 5.09372 | 818 ft | 35 kts | 178° |
| 2026-05-05 21:08 | 45.71772 | 5.09329 | 820 ft | 29 kts | 199° |
| 2026-05-05 21:08 | 45.71641 | 5.09214 | 817 ft | 17 kts | 250° |
| 2026-05-05 21:09 | 45.71626 | 5.09020 | 814 ft | 19 kts | 265° |
| 2026-05-05 21:09 | 45.71616 | 5.08839 | 813 ft | 17 kts | 277° |
| 2026-05-05 21:09 | 45.71609 | 5.08748 | 809 ft | 0 kts | 265° |
| 2026-05-05 21:10 | 45.71608 | 5.08741 | 809 ft | 5 kts | 265° |
| 2026-05-05 21:10 | 45.71599 | 5.08610 | 805 ft | 17 kts | 264° |
| 2026-05-05 21:11 | 45.71659 | 5.08500 | 803 ft | 14 kts | 352° |
| 2026-05-05 21:11 | 45.71753 | 5.08488 | 802 ft | 13 kts | 355° |
| 2026-05-05 21:11 | 45.71833 | 5.08478 | 802 ft | 11 kts | 355° |
| 2026-05-05 21:11 | 45.71897 | 5.08471 | 802 ft | 8 kts | 354° |
| 2026-05-05 21:12 | 45.71941 | 5.08438 | 801 ft | 7 kts | 307° |
| 2026-05-05 21:12 | 45.71957 | 5.08370 | 800 ft | 7 kts | 285° |
| 2026-05-05 21:12 | 45.71970 | 5.08301 | 799 ft | 7 kts | 284° |
| 2026-05-05 21:12 | 45.71981 | 5.08238 | 797 ft | 7 kts | 284° |
| 2026-05-05 21:13 | 45.71993 | 5.08170 | 796 ft | 6 kts | 284° |